Flight Track Log - Related Links

Times and Time Zones

All times are in EDT time to prevent confusion due to time zone crossing. See the SWA1618 flight status page for this flight to view local times or setup timezone preferences in your user account.

Time Position Orientation Groundspeed Altitude Reporting Facility
EDT Latitude Longitude Course Direction KTS MPH feet Rate Location/Type
Sat 07:07:05 AM 42.7694 -73.8089 317° Northwest 153 176 1,500  Level Boston Center
Sat 07:09:08 AM 42.8494 -73.9100 317° Northwest 223 257 7,300 2,918 Climbing Boston Center
Sat 07:10:08 AM 42.9003 -73.9933 310° West 237 273 10,400 2,800 Climbing Boston Center
Sat 07:11:08 AM 42.9514 -74.0825 308° West 296 341 12,900 2,650 Climbing Boston Center
Sat 07:12:08 AM 42.9742 -74.2164 283° West 327 376 15,700 2,700 Climbing Boston Center
Sat 07:13:08 AM 42.9869 -74.3389 278° West 357 411 18,300 2,550 Climbing Boston Center
Sat 07:14:08 AM 42.9989 -74.4811 277° West 370 426 20,800 2,400 Climbing Boston Center
Sat 07:15:08 AM 43.0131 -74.6239 278° West 376 433 23,100 2,200 Climbing Boston Center
Sat 07:16:08 AM 43.0289 -74.7719 278° West 387 445 25,200 2,150 Climbing Boston Center
Sat 07:17:08 AM 43.0425 -74.9175 277° West 392 451 27,400 1,650 Climbing Boston Center
Sat 07:18:08 AM 43.0575 -75.0800 277° West 407 468 28,500 1,550 Climbing Boston Center
Sat 07:19:08 AM 43.0747 -75.2400 278° West 425 489 30,500 2,150 Climbing Boston Center
Sat 07:20:08 AM 43.0872 -75.3997 276° West 430 495 32,800 2,200 Climbing Boston Center
Sat 07:21:08 AM 43.1019 -75.5542 277° West 425 489 34,900 1,934 Climbing Boston Center
Sat 07:22:09 AM 43.1181 -75.7172 278° West 418 481 36,700 1,500 Climbing Boston Center
Sat 07:23:08 AM 43.1294 -75.8344 278° West 407 468 37,900 655 Climbing Boston Center
Sat 07:24:08 AM 43.1447 -76.0117 277° West 402 463 38,000 35 Climbing Boston Center
Sat 07:26:00 AM 43.1425 -76.2692 269° West 398 458 38,000  Level Cleveland Center
Sat 07:27:00 AM 43.0997 -76.4031 246° West 386 444 38,000  Level Cleveland Center
Sat 07:28:00 AM 43.0544 -76.5397 246° West 391 450 38,000  Level Cleveland Center
Sat 07:29:00 AM 43.0111 -76.6789 247° West 396 456 38,000  Level Cleveland Center
Sat 07:30:00 AM 42.9697 -76.8064 246° West 390 449 38,000  Level Cleveland Center
Sat 07:31:00 AM 42.9261 -76.9422 246° West 390 449 38,000  Level Cleveland Center
Sat 07:32:00 AM 42.8822 -77.0753 246° West 390 449 38,000  Level Cleveland Center
Sat 07:33:00 AM 42.8383 -77.2081 246° West 390 449 38,000  Level Cleveland Center
Sat 07:34:00 AM 42.7942 -77.3433 246° West 390 449 38,000  Level Cleveland Center
Sat 07:35:00 AM 42.7519 -77.4756 247° West 390 449 38,000  Level Cleveland Center
Sat 07:36:00 AM 42.7075 -77.6106 246° West 390 449 38,000  Level Cleveland Center
Sat 07:37:00 AM 42.6608 -77.7456 245° Southwest 390 449 38,000  Level Cleveland Center
Sat 07:38:00 AM 42.6122 -77.8944 246° West 390 449 38,000  Level Cleveland Center
Sat 07:39:00 AM 42.5672 -78.0233 245° Southwest 390 449 38,000  Level Cleveland Center
Sat 07:40:00 AM 42.5244 -78.1575 247° West 390 449 38,000  Level Cleveland Center
Sat 07:41:00 AM 42.4792 -78.2886 245° Southwest 390 449 38,000  Level Cleveland Center
Sat 07:42:00 AM 42.4336 -78.4197 245° Southwest 390 449 38,000  Level Cleveland Center
Sat 07:43:00 AM 42.3883 -78.5564 246° West 390 449 38,000  Level Cleveland Center
Sat 07:44:00 AM 42.3425 -78.6869 245° Southwest 390 449 38,000  Level Cleveland Center
Sat 07:45:00 AM 42.2947 -78.8203 244° Southwest 390 449 38,000  Level Cleveland Center
Sat 07:46:00 AM 42.2547 -78.9336 245° Southwest 385 443 38,000  Level Cleveland Center
Sat 07:47:00 AM 42.2086 -79.0694 245° Southwest 392 451 38,000  Level Cleveland Center
Sat 07:48:00 AM 42.1686 -79.2078 249° West 392 451 38,000  Level Cleveland Center
Sat 07:49:00 AM 42.1325 -79.3456 251° West 392 451 38,000  Level Cleveland Center
Sat 07:50:00 AM 42.0986 -79.4778 251° West 392 451 38,000  Level Cleveland Center
Sat 07:51:00 AM 42.0622 -79.6156 250° West 392 451 38,000  Level Cleveland Center
Sat 07:52:00 AM 42.0258 -79.7558 251° West 392 451 38,000  Level Cleveland Center
Sat 07:53:00 AM 41.9872 -79.8958 250° West 392 451 38,000  Level Cleveland Center
Sat 07:54:00 AM 41.9483 -80.0444 251° West 392 451 38,000  Level Cleveland Center
Sat 07:55:00 AM 41.9092 -80.1814 249° West 392 451 38,000  Level Cleveland Center
Sat 07:56:00 AM 41.8742 -80.3183 251° West 392 451 38,000  Level Cleveland Center
Sat 07:57:00 AM 41.8369 -80.4550 250° West 392 451 38,000  Level Cleveland Center
Sat 07:58:00 AM 41.7994 -80.5942 250° West 392 451 38,000  Level Cleveland Center
Sat 07:59:00 AM 41.7619 -80.7306 250° West 392 451 38,000  Level Cleveland Center
Sat 08:00:00 AM 41.7219 -80.8725 249° West 398 458 38,000  Level Cleveland Center
Sat 08:01:00 AM 41.6861 -81.0058 250° West 393 452 38,000  Level Cleveland Center
Sat 08:02:00 AM 41.6458 -81.1444 249° West 393 452 38,000  Level Cleveland Center
Sat 08:03:00 AM 41.6075 -81.2803 249° West 393 452 38,000  Level Cleveland Center
Sat 08:04:00 AM 41.5756 -81.4186 253° West 388 447 38,000  Level Cleveland Center
Sat 08:05:00 AM 41.5742 -81.5656 269° West 394 453 38,000  Level Cleveland Center
Sat 08:06:00 AM 41.5708 -81.7128 268° West 399 459 38,000  Level Cleveland Center
Sat 08:07:00 AM 41.5672 -81.8597 268° West 404 465 38,000  Level Cleveland Center
Sat 08:08:00 AM 41.5636 -81.9931 268° West 399 459 38,000  Level Cleveland Center
Sat 08:09:00 AM 41.5594 -82.1400 268° West 404 465 38,000  Level Cleveland Center
Sat 08:10:00 AM 41.5553 -82.2869 268° West 404 465 38,000  Level Cleveland Center
Sat 08:11:00 AM 41.5531 -82.4367 269° West 399 459 38,000  Level Cleveland Center
Sat 08:12:00 AM 41.5486 -82.5836 268° West 404 465 38,000  Level Cleveland Center
Sat 08:13:00 AM 41.5481 -82.7278 270° West 399 459 38,000  Level Cleveland Center
Sat 08:14:00 AM 41.5431 -82.8747 267° West 399 459 38,000  Level Cleveland Center
Sat 08:15:00 AM 41.5378 -83.0217 267° West 399 459 38,000  Level Cleveland Center
Sat 08:16:00 AM 41.5344 -83.1769 268° West 399 459 38,000  Level Cleveland Center
Sat 08:17:00 AM 41.5250 -83.3208 265° West 399 459 38,000  Level Cleveland Center
Sat 08:18:00 AM 41.5233 -83.4678 269° West 399 459 38,000  Level Cleveland Center
Sat 08:19:00 AM 41.5153 -83.6142 266° West 399 459 38,000 -450 Level Cleveland Center
Sat 08:20:00 AM 41.5114 -83.7611 268° West 399 459 37,100 -900 Descending Cleveland Center
Sat 08:21:00 AM 41.5072 -83.9078 268° West 404 465 36,200 -550 Descending Cleveland Center
Sat 08:22:00 AM 41.5006 -84.0628 267° West 404 465 36,000 -451 Descending Cleveland Center
Sat 08:23:13 AM 41.4981 -84.2236 269° West 407 468 35,200 -1,209 Descending Chicago Center
Sat 08:24:14 AM 41.4917 -84.3767 267° West 414 476 33,300 -1,854 Descending Chicago Center
Sat 08:25:16 AM 41.4847 -84.5333 267° West 423 487 31,400 -1,610 Descending Chicago Center
Sat 08:26:17 AM 41.4822 -84.7239 269° West 429 494 30,000 -829 Descending Chicago Center
Sat 08:27:19 AM 41.4894 -84.8831 274° West 430 495 29,700 -488 Descending Chicago Center
Sat 08:28:20 AM 41.4953 -85.0456 273° West 437 503 29,000 -634 Descending Chicago Center
Sat 08:29:22 AM 41.5000 -85.2089 272° West 439 505 28,400 -1,659 Descending Chicago Center
Sat 08:30:23 AM 41.5036 -85.3717 272° West 433 498 25,600 -2,164 Descending Chicago Center
Sat 08:31:24 AM 41.5100 -85.5314 273° West 417 480 24,000 -1,561 Descending Chicago Center
Sat 08:32:26 AM 41.5147 -85.6831 272° West 406 467 22,400 -2,098 Descending Chicago Center
Sat 08:33:27 AM 41.5186 -85.8344 272° West 407 468 19,700 -2,439 Descending Chicago Center
Sat 08:34:29 AM 41.5236 -85.9842 273° West 404 465 17,400 -2,341 Descending Chicago Center
Sat 08:35:30 AM 41.5242 -86.1294 270° West 395 455 14,900 -2,439 Descending Chicago Center
Sat 08:36:32 AM 41.5239 -86.2728 270° West 389 448 12,400 -1,854 Descending Chicago Center
Sat 08:37:33 AM 41.5228 -86.4056 269° West 360 414 11,100 -1,082 Descending Chicago Center
Sat 08:38:34 AM 41.5214 -86.5281 269° West 335 386 10,200 -488 Descending Chicago Center
Sat 08:39:36 AM 41.5203 -86.6678 269° West 317 365 10,100 -98 Descending Chicago Center
Sat 08:40:37 AM 41.5194 -86.7911 270° West 324 373 10,000 -195 Descending Chicago Center
Sat 08:41:39 AM 41.5192 -86.8986 270° West 295 339 9,700 -829 Descending Chicago Center
Sat 08:42:40 AM 41.5208 -87.0011 271° West 280 322 8,300 -1,268 Descending Chicago Center
Sat 08:43:42 AM 41.5453 -87.1006 288° West 287 330 7,100 -1,024 Descending Chicago Center
Sat 08:44:43 AM 41.5700 -87.1972 289° West 278 320 6,200 -780 Descending Chicago Center
Sat 08:45:45 AM 41.5936 -87.2958 288° West 279 321 5,500 -829 Descending Chicago Center
Sat 08:46:46 AM 41.6217 -87.4119 288° West 278 320 4,500 -738 Descending Chicago Center
Sat 08:47:47 AM 41.6442 -87.5028 288° West 269 310 4,000 -293 Descending Chicago Center
Sat 08:48:49 AM 41.6742 -87.5817 297° West 254 292 3,900 -439 Descending Chicago Center
Sat 08:49:50 AM 41.7200 -87.6344 319° Northwest 238 274 3,100 -634 Descending Chicago Center
Sat 08:50:52 AM 41.7739 -87.6464 351° North 214 246 2,600 -634 Descending Chicago Center
Sat 08:51:53 AM 41.8086 -87.6844 321° Northwest 180 207 1,800 -780 Descending Chicago Center
Sat 08:52:55 AM 41.8044 -87.7286 263° West 144 166 1,000 -774 Descending Chicago Center
Sat 08:54:00 AM 41.7833 -87.7500 217° Southwest  Level FlightAware Approximate

Login

Don't have an account? Register now (free) for customized features, flight alerts, and more!